Waubay, South Dakota
Current Conditions -  °F | °C
As of 8:53 PM on Wednesday 26 Nov 2014 (Local Time) from KATY Reporting Station
Clear Clear  
Wind Chill: -16°   Ceiling: Unl
Heat Index: -1°   Visibility: 10mi
Dew Point: -7°   Wind: 9mph
Humidity: 75%   Direction: 360°N
Pressure: 30.41"   Gusts: NA
Location:  45.33°N, 97.31°W
Report Text: KATY 270253Z AUTO 36008KT 10SM CLR M18/M22 A3041 RMK AO2 SLP342 T11831217 51012
Loading
Personal Weather Stations






























Interactive Weather Map New forecast layout! Learn more

10-Day Weather Forecast

Advertisements
Track Severe Weather on mobile